sensor_id;sensor_type;location;lat;lon;timestamp;pressure;altitude;pressure_sealevel;temperature;humidity
18527;BME280;9393;42.158;24.748;2023-04-15T00:00:08;98811.34;;;15.15;73.49
18527;BME280;9393;42.158;24.748;2023-04-15T00:03:16;98801.03;;;14.92;74.26
18527;BME280;9393;42.158;24.748;2023-04-15T00:06:20;98807.34;;;15.19;73.15
18527;BME280;9393;42.158;24.748;2023-04-15T00:09:24;98804.78;;;15.26;72.73
18527;BME280;9393;42.158;24.748;2023-04-15T00:12:28;98810.13;;;14.96;73.96
18527;BME280;9393;42.158;24.748;2023-04-15T00:15:31;98808.59;;;15.02;73.69
18527;BME280;9393;42.158;24.748;2023-04-15T00:18:37;98813.66;;;14.46;76.23
18527;BME280;9393;42.158;24.748;2023-04-15T00:21:40;98823.63;;;14.72;75.22
18527;BME280;9393;42.158;24.748;2023-04-15T00:24:44;98819.00;;;14.74;75.34
18527;BME280;9393;42.158;24.748;2023-04-15T00:27:47;98822.53;;;14.31;77.61
18527;BME280;9393;42.158;24.748;2023-04-15T00:30:51;98815.84;;;13.99;79.17
18527;BME280;9393;42.158;24.748;2023-04-15T00:33:56;98820.47;;;14.41;76.85
18527;BME280;9393;42.158;24.748;2023-04-15T00:37:00;98812.84;;;14.46;76.85
18527;BME280;9393;42.158;24.748;2023-04-15T00:40:05;98799.47;;;14.26;77.67
18527;BME280;9393;42.158;24.748;2023-04-15T00:43:09;98803.75;;;14.63;75.82
18527;BME280;9393;42.158;24.748;2023-04-15T00:46:14;98801.03;;;14.71;75.37
18527;BME280;9393;42.158;24.748;2023-04-15T00:49:20;98801.09;;;14.78;75.11
18527;BME280;9393;42.158;24.748;2023-04-15T00:52:25;98804.16;;;14.81;74.90
18527;BME280;9393;42.158;24.748;2023-04-15T00:55:28;98801.94;;;14.63;75.57
18527;BME280;9393;42.158;24.748;2023-04-15T00:58:32;98808.22;;;14.18;78.16
18527;BME280;9393;42.158;24.748;2023-04-15T01:01:36;98809.94;;;14.26;77.51
18527;BME280;9393;42.158;24.748;2023-04-15T01:04:42;98796.59;;;14.06;78.32
18527;BME280;9393;42.158;24.748;2023-04-15T01:07:46;98786.59;;;14.31;77.53
18527;BME280;9393;42.158;24.748;2023-04-15T01:10:49;98787.63;;;14.15;77.91
18527;BME280;9393;42.158;24.748;2023-04-15T01:13:54;98789.69;;;14.20;77.30
18527;BME280;9393;42.158;24.748;2023-04-15T01:16:58;98788.97;;;14.26;76.57
18527;BME280;9393;42.158;24.748;2023-04-15T01:20:05;98807.56;;;14.31;75.98
18527;BME280;9393;42.158;24.748;2023-04-15T01:23:11;98811.13;;;14.38;75.67
18527;BME280;9393;42.158;24.748;2023-04-15T01:26:17;98824.13;;;14.32;75.85
18527;BME280;9393;42.158;24.748;2023-04-15T01:29:20;98829.38;;;14.32;75.58
18527;BME280;9393;42.158;24.748;2023-04-15T01:32:25;98826.66;;;14.54;74.59
18527;BME280;9393;42.158;24.748;2023-04-15T01:35:28;98822.59;;;14.52;74.23
18527;BME280;9393;42.158;24.748;2023-04-15T01:38:32;98807.41;;;14.33;74.83
18527;BME280;9393;42.158;24.748;2023-04-15T01:41:37;98798.44;;;13.54;77.79
18527;BME280;9393;42.158;24.748;2023-04-15T01:44:41;98815.47;;;13.87;76.45
18527;BME280;9393;42.158;24.748;2023-04-15T01:47:46;98832.28;;;13.78;76.20
18527;BME280;9393;42.158;24.748;2023-04-15T01:50:51;98828.91;;;14.28;73.75
18527;BME280;9393;42.158;24.748;2023-04-15T01:53:55;98824.50;;;14.29;72.69
18527;BME280;9393;42.158;24.748;2023-04-15T01:57:00;98830.63;;;13.77;74.43
18527;BME280;9393;42.158;24.748;2023-04-15T02:00:05;98855.25;;;14.05;72.67
18527;BME280;9393;42.158;24.748;2023-04-15T02:03:16;98863.38;;;14.10;71.88
18527;BME280;9393;42.158;24.748;2023-04-15T02:06:20;98862.94;;;13.92;72.38
18527;BME280;9393;42.158;24.748;2023-04-15T02:09:23;98865.56;;;13.92;71.64
18527;BME280;9393;42.158;24.748;2023-04-15T02:12:28;98863.09;;;13.91;71.28
18527;BME280;9393;42.158;24.748;2023-04-15T02:15:32;98858.91;;;13.67;71.26
18527;BME280;9393;42.158;24.748;2023-04-15T02:18:36;98861.38;;;13.98;70.05
18527;BME280;9393;42.158;24.748;2023-04-15T02:21:39;98857.91;;;13.68;70.68
18527;BME280;9393;42.158;24.748;2023-04-15T02:24:43;98849.44;;;13.81;69.80
18527;BME280;9393;42.158;24.748;2023-04-15T02:27:49;98855.44;;;13.52;70.68
18527;BME280;9393;42.158;24.748;2023-04-15T02:30:53;98851.78;;;13.90;69.55
18527;BME280;9393;42.158;24.748;2023-04-15T02:33:58;98852.63;;;13.91;69.55
18527;BME280;9393;42.158;24.748;2023-04-15T02:37:05;98840.00;;;13.57;70.63
18527;BME280;9393;42.158;24.748;2023-04-15T02:40:10;98839.09;;;13.50;70.68
18527;BME280;9393;42.158;24.748;2023-04-15T02:43:16;98842.19;;;13.68;69.92
18527;BME280;9393;42.158;24.748;2023-04-15T02:46:19;98844.94;;;13.89;69.06
18527;BME280;9393;42.158;24.748;2023-04-15T02:49:24;98853.78;;;13.88;69.06
18527;BME280;9393;42.158;24.748;2023-04-15T02:52:27;98868.78;;;13.94;68.30
18527;BME280;9393;42.158;24.748;2023-04-15T02:55:31;98872.41;;;13.93;68.61
18527;BME280;9393;42.158;24.748;2023-04-15T02:58:36;98878.88;;;13.83;69.34
18527;BME280;9393;42.158;24.748;2023-04-15T03:01:40;98869.50;;;13.74;69.52
18527;BME280;9393;42.158;24.748;2023-04-15T03:04:44;98864.00;;;13.46;69.24
18527;BME280;9393;42.158;24.748;2023-04-15T03:07:47;98861.38;;;13.46;67.92
18527;BME280;9393;42.158;24.748;2023-04-15T03:10:51;98855.91;;;13.33;68.55
18527;BME280;9393;42.158;24.748;2023-04-15T03:13:57;98848.59;;;13.51;67.30
18527;BME280;9393;42.158;24.748;2023-04-15T03:17:06;98857.66;;;13.40;67.46
18527;BME280;9393;42.158;24.748;2023-04-15T03:20:12;98869.19;;;13.54;67.77
18527;BME280;9393;42.158;24.748;2023-04-15T03:23:16;98884.13;;;13.45;68.11
18527;BME280;9393;42.158;24.748;2023-04-15T03:26:25;98880.31;;;13.33;68.96
18527;BME280;9393;42.158;24.748;2023-04-15T03:29:34;98877.53;;;13.04;70.29
18527;BME280;9393;42.158;24.748;2023-04-15T03:32:38;98887.28;;;12.87;70.59
18527;BME280;9393;42.158;24.748;2023-04-15T03:35:42;98898.56;;;12.88;70.32
18527;BME280;9393;42.158;24.748;2023-04-15T03:38:46;98905.31;;;12.82;70.32
18527;BME280;9393;42.158;24.748;2023-04-15T03:41:50;98936.50;;;12.84;69.57
18527;BME280;9393;42.158;24.748;2023-04-15T03:44:55;98929.81;;;12.42;70.40
18527;BME280;9393;42.158;24.748;2023-04-15T03:47:59;98934.25;;;12.34;70.13
18527;BME280;9393;42.158;24.748;2023-04-15T03:51:05;98920.88;;;12.21;70.45
18527;BME280;9393;42.158;24.748;2023-04-15T03:54:08;98928.69;;;12.37;69.75
18527;BME280;9393;42.158;24.748;2023-04-15T03:57:12;98934.19;;;12.50;69.56
18527;BME280;9393;42.158;24.748;2023-04-15T04:00:17;98934.28;;;12.73;68.76
18527;BME280;9393;42.158;24.748;2023-04-15T04:03:21;98950.78;;;12.73;68.61
18527;BME280;9393;42.158;24.748;2023-04-15T04:06:25;98951.59;;;12.74;68.92
18527;BME280;9393;42.158;24.748;2023-04-15T04:09:29;98942.72;;;12.83;68.39
18527;BME280;9393;42.158;24.748;2023-04-15T04:12:32;98948.63;;;12.85;67.96
18527;BME280;9393;42.158;24.748;2023-04-15T04:15:37;98948.97;;;12.82;68.06
18527;BME280;9393;42.158;24.748;2023-04-15T04:18:41;98958.50;;;11.95;70.46
18527;BME280;9393;42.158;24.748;2023-04-15T04:21:44;98948.84;;;12.20;70.02
18527;BME280;9393;42.158;24.748;2023-04-15T04:24:48;98946.72;;;11.99;70.88
18527;BME280;9393;42.158;24.748;2023-04-15T04:27:52;98946.66;;;12.32;69.12
18527;BME280;9393;42.158;24.748;2023-04-15T04:30:56;98937.25;;;12.06;70.17
18527;BME280;9393;42.158;24.748;2023-04-15T04:34:00;98946.56;;;12.09;69.50
18527;BME280;9393;42.158;24.748;2023-04-15T04:37:03;98950.66;;;11.95;69.79
18527;BME280;9393;42.158;24.748;2023-04-15T04:40:08;98946.56;;;12.01;69.30
18527;BME280;9393;42.158;24.748;2023-04-15T04:43:12;98955.19;;;12.18;69.14
18527;BME280;9393;42.158;24.748;2023-04-15T04:46:18;98960.06;;;12.37;68.62
18527;BME280;9393;42.158;24.748;2023-04-15T04:49:22;98967.91;;;12.37;69.29
18527;BME280;9393;42.158;24.748;2023-04-15T04:52:26;98964.63;;;12.43;69.18
18527;BME280;9393;42.158;24.748;2023-04-15T04:55:30;98967.75;;;12.85;67.95
18527;BME280;9393;42.158;24.748;2023-04-15T04:58:34;98978.53;;;13.29;66.30
18527;BME280;9393;42.158;24.748;2023-04-15T05:01:39;98982.63;;;13.77;64.76
18527;BME280;9393;42.158;24.748;2023-04-15T05:04:43;98983.91;;;13.58;64.76
18527;BME280;9393;42.158;24.748;2023-04-15T05:07:46;98980.13;;;14.21;63.13
18527;BME280;9393;42.158;24.748;2023-04-15T05:10:51;98974.75;;;14.52;61.68
18527;BME280;9393;42.158;24.748;2023-04-15T05:13:54;98969.22;;;14.76;61.48
18527;BME280;9393;42.158;24.748;2023-04-15T05:17:00;98976.31;;;14.46;62.02
18527;BME280;9393;42.158;24.748;2023-04-15T05:20:05;98969.31;;;14.97;60.92
18527;BME280;9393;42.158;24.748;2023-04-15T05:23:09;98981.53;;;15.41;60.03
18527;BME280;9393;42.158;24.748;2023-04-15T05:26:13;98986.03;;;15.61;58.59
18527;BME280;9393;42.158;24.748;2023-04-15T05:29:17;98995.84;;;15.74;58.92
18527;BME280;9393;42.158;24.748;2023-04-15T05:32:22;98996.34;;;15.84;58.81
18527;BME280;9393;42.158;24.748;2023-04-15T05:35:26;99005.06;;;16.06;58.09
18527;BME280;9393;42.158;24.748;2023-04-15T05:38:29;99011.63;;;15.74;58.36
18527;BME280;9393;42.158;24.748;2023-04-15T05:41:33;99003.84;;;16.08;57.20
18527;BME280;9393;42.158;24.748;2023-04-15T05:44:37;99012.50;;;15.81;57.65
18527;BME280;9393;42.158;24.748;2023-04-15T05:47:42;99009.00;;;16.16;56.70
18527;BME280;9393;42.158;24.748;2023-04-15T05:50:46;99022.75;;;16.18;57.41
18527;BME280;9393;42.158;24.748;2023-04-15T05:53:50;99019.94;;;15.56;59.59
18527;BME280;9393;42.158;24.748;2023-04-15T05:56:53;99026.97;;;15.92;59.01
18527;BME280;9393;42.158;24.748;2023-04-15T05:59:57;99019.78;;;15.29;60.89
18527;BME280;9393;42.158;24.748;2023-04-15T06:03:02;99030.97;;;15.66;59.45
18527;BME280;9393;42.158;24.748;2023-04-15T06:06:07;99038.16;;;16.00;58.40
18527;BME280;9393;42.158;24.748;2023-04-15T06:09:11;99044.94;;;16.09;57.95
18527;BME280;9393;42.158;24.748;2023-04-15T06:12:15;99046.47;;;16.74;56.59
18527;BME280;9393;42.158;24.748;2023-04-15T06:15:18;99042.47;;;16.78;56.00
18527;BME280;9393;42.158;24.748;2023-04-15T06:18:24;99049.66;;;17.45;54.64
18527;BME280;9393;42.158;24.748;2023-04-15T06:21:27;99059.94;;;17.74;54.32
18527;BME280;9393;42.158;24.748;2023-04-15T06:24:32;99058.56;;;17.91;54.00
18527;BME280;9393;42.158;24.748;2023-04-15T06:27:38;99065.09;;;18.08;53.67
18527;BME280;9393;42.158;24.748;2023-04-15T06:30:42;99063.25;;;18.42;52.95
18527;BME280;9393;42.158;24.748;2023-04-15T06:33:47;99059.22;;;18.52;52.87
18527;BME280;9393;42.158;24.748;2023-04-15T06:36:53;99059.72;;;17.69;54.80
18527;BME280;9393;42.158;24.748;2023-04-15T06:39:57;99056.97;;;18.30;53.69
18527;BME280;9393;42.158;24.748;2023-04-15T06:43:00;99063.25;;;18.22;54.18
18527;BME280;9393;42.158;24.748;2023-04-15T06:46:06;99052.94;;;18.60;53.77
18527;BME280;9393;42.158;24.748;2023-04-15T06:49:11;99061.66;;;18.41;54.85
18527;BME280;9393;42.158;24.748;2023-04-15T06:52:14;99058.00;;;18.68;54.42
18527;BME280;9393;42.158;24.748;2023-04-15T06:55:19;99070.97;;;18.96;54.35
18527;BME280;9393;42.158;24.748;2023-04-15T06:58:22;99061.13;;;19.29;53.83
18527;BME280;9393;42.158;24.748;2023-04-15T07:01:26;99072.59;;;19.61;53.00
18527;BME280;9393;42.158;24.748;2023-04-15T07:04:32;99067.13;;;19.56;53.50
18527;BME280;9393;42.158;24.748;2023-04-15T07:07:36;99070.56;;;20.26;52.14
18527;BME280;9393;42.158;24.748;2023-04-15T07:10:40;99070.94;;;20.60;51.51
18527;BME280;9393;42.158;24.748;2023-04-15T07:13:44;99073.25;;;20.75;51.04
18527;BME280;9393;42.158;24.748;2023-04-15T07:16:48;99074.16;;;20.62;51.89
18527;BME280;9393;42.158;24.748;2023-04-15T07:19:53;99082.22;;;20.74;52.13
18527;BME280;9393;42.158;24.748;2023-04-15T07:22:57;99083.41;;;20.78;52.31
18527;BME280;9393;42.158;24.748;2023-04-15T07:26:01;99083.06;;;20.93;51.54
18527;BME280;9393;42.158;24.748;2023-04-15T07:29:05;99089.53;;;21.22;50.90
18527;BME280;9393;42.158;24.748;2023-04-15T07:32:09;99089.81;;;21.13;51.38
18527;BME280;9393;42.158;24.748;2023-04-15T07:35:14;99085.66;;;20.99;51.73
18527;BME280;9393;42.158;24.748;2023-04-15T07:38:18;99097.63;;;21.27;50.78
18527;BME280;9393;42.158;24.748;2023-04-15T07:41:22;99087.09;;;20.77;52.47
18527;BME280;9393;42.158;24.748;2023-04-15T07:44:26;99089.91;;;19.57;56.02
18527;BME280;9393;42.158;24.748;2023-04-15T07:47:30;99082.13;;;20.06;54.08
18527;BME280;9393;42.158;24.748;2023-04-15T07:50:36;99068.59;;;19.83;55.12
18527;BME280;9393;42.158;24.748;2023-04-15T07:53:39;99073.66;;;20.23;53.06
18527;BME280;9393;42.158;24.748;2023-04-15T07:56:43;99075.69;;;20.21;53.57
18527;BME280;9393;42.158;24.748;2023-04-15T07:59:47;99083.97;;;21.05;52.13
18527;BME280;9393;42.158;24.748;2023-04-15T08:02:51;99091.94;;;21.59;50.66
18527;BME280;9393;42.158;24.748;2023-04-15T08:05:57;99093.28;;;21.80;49.03
18527;BME280;9393;42.158;24.748;2023-04-15T08:09:01;99091.94;;;21.89;47.92
18527;BME280;9393;42.158;24.748;2023-04-15T08:12:05;99083.22;;;20.98;48.52
18527;BME280;9393;42.158;24.748;2023-04-15T08:15:10;99076.75;;;20.69;48.93
18527;BME280;9393;42.158;24.748;2023-04-15T08:18:14;99088.63;;;21.64;48.04
18527;BME280;9393;42.158;24.748;2023-04-15T08:21:20;99080.97;;;21.38;48.63
18527;BME280;9393;42.158;24.748;2023-04-15T08:24:24;99087.47;;;21.90;46.94
18527;BME280;9393;42.158;24.748;2023-04-15T08:27:28;99082.66;;;22.40;45.92
18527;BME280;9393;42.158;24.748;2023-04-15T08:30:32;99083.94;;;21.78;44.78
18527;BME280;9393;42.158;24.748;2023-04-15T08:33:36;99080.19;;;21.67;45.87
18527;BME280;9393;42.158;24.748;2023-04-15T08:36:41;99069.31;;;21.39;47.66
18527;BME280;9393;42.158;24.748;2023-04-15T08:39:45;99078.91;;;21.88;46.37
18527;BME280;9393;42.158;24.748;2023-04-15T08:42:51;99082.13;;;21.60;47.26
18527;BME280;9393;42.158;24.748;2023-04-15T08:45:58;99075.38;;;21.46;46.82
18527;BME280;9393;42.158;24.748;2023-04-15T08:49:03;99072.63;;;22.00;46.10
18527;BME280;9393;42.158;24.748;2023-04-15T08:52:09;99072.47;;;22.37;45.07
18527;BME280;9393;42.158;24.748;2023-04-15T08:55:14;99079.25;;;22.74;43.30
18527;BME280;9393;42.158;24.748;2023-04-15T08:58:18;99071.13;;;22.69;43.03
18527;BME280;9393;42.158;24.748;2023-04-15T09:01:22;99079.19;;;22.62;42.77
18527;BME280;9393;42.158;24.748;2023-04-15T09:04:27;99078.50;;;23.13;41.60
18527;BME280;9393;42.158;24.748;2023-04-15T09:07:34;99069.50;;;23.14;40.67
18527;BME280;9393;42.158;24.748;2023-04-15T09:10:38;99071.59;;;23.01;41.54
18527;BME280;9393;42.158;24.748;2023-04-15T09:13:42;99066.94;;;23.20;40.98
18527;BME280;9393;42.158;24.748;2023-04-15T09:16:59;99069.34;;;23.21;40.59
18527;BME280;9393;42.158;24.748;2023-04-15T09:20:08;99065.59;;;23.57;40.11
18527;BME280;9393;42.158;24.748;2023-04-15T09:23:14;99059.69;;;23.55;39.46
18527;BME280;9393;42.158;24.748;2023-04-15T09:26:19;99057.00;;;23.15;40.25
18527;BME280;9393;42.158;24.748;2023-04-15T09:29:24;99056.09;;;23.09;41.04
18527;BME280;9393;42.158;24.748;2023-04-15T09:32:28;99049.72;;;23.22;41.45
18527;BME280;9393;42.158;24.748;2023-04-15T09:35:32;99050.41;;;22.36;42.93
18527;BME280;9393;42.158;24.748;2023-04-15T09:38:53;99046.91;;;22.12;43.42
18527;BME280;9393;42.158;24.748;2023-04-15T09:42:07;99046.00;;;22.19;42.58
18527;BME280;9393;42.158;24.748;2023-04-15T09:45:11;99038.88;;;22.42;41.65
18527;BME280;9393;42.158;24.748;2023-04-15T09:48:17;99039.47;;;23.02;41.48
18527;BME280;9393;42.158;24.748;2023-04-15T09:51:33;99035.03;;;23.20;40.56
18527;BME280;9393;42.158;24.748;2023-04-15T09:54:39;99047.09;;;22.64;41.20
18527;BME280;9393;42.158;24.748;2023-04-15T09:57:44;99034.00;;;23.09;39.88
18527;BME280;9393;42.158;24.748;2023-04-15T10:00:49;99044.28;;;22.59;39.99
18527;BME280;9393;42.158;24.748;2023-04-15T10:03:56;99034.88;;;22.75;39.64
18527;BME280;9393;42.158;24.748;2023-04-15T10:07:02;99025.47;;;22.95;38.96
18527;BME280;9393;42.158;24.748;2023-04-15T10:10:10;99022.22;;;22.58;38.39
18527;BME280;9393;42.158;24.748;2023-04-15T10:13:16;99018.78;;;23.33;37.35
18527;BME280;9393;42.158;24.748;2023-04-15T10:16:21;99014.50;;;24.17;35.73
18527;BME280;9393;42.158;24.748;2023-04-15T10:19:26;99009.00;;;24.06;35.49
18527;BME280;9393;42.158;24.748;2023-04-15T10:22:32;99005.75;;;24.54;35.52
18527;BME280;9393;42.158;24.748;2023-04-15T10:25:39;98994.75;;;23.84;38.30
18527;BME280;9393;42.158;24.748;2023-04-15T10:28:43;98986.66;;;23.79;38.60
18527;BME280;9393;42.158;24.748;2023-04-15T10:31:48;98995.41;;;22.95;39.99
18527;BME280;9393;42.158;24.748;2023-04-15T10:34:53;98993.50;;;23.19;39.43
18527;BME280;9393;42.158;24.748;2023-04-15T10:37:57;98993.72;;;23.85;39.14
18527;BME280;9393;42.158;24.748;2023-04-15T10:41:16;98991.06;;;24.02;38.70
18527;BME280;9393;42.158;24.748;2023-04-15T10:44:22;98979.13;;;24.21;39.06
18527;BME280;9393;42.158;24.748;2023-04-15T10:47:27;98984.38;;;23.54;40.08
18527;BME280;9393;42.158;24.748;2023-04-15T10:50:31;98984.78;;;24.25;39.26
18527;BME280;9393;42.158;24.748;2023-04-15T10:53:35;98982.81;;;24.03;38.58
18527;BME280;9393;42.158;24.748;2023-04-15T10:56:42;98980.72;;;23.89;39.13
18527;BME280;9393;42.158;24.748;2023-04-15T11:00:01;98978.31;;;24.21;37.53
18527;BME280;9393;42.158;24.748;2023-04-15T11:03:08;98980.47;;;24.57;37.04
18527;BME280;9393;42.158;24.748;2023-04-15T11:06:13;98967.25;;;24.29;36.77
18527;BME280;9393;42.158;24.748;2023-04-15T11:09:30;98975.94;;;24.79;36.26
18527;BME280;9393;42.158;24.748;2023-04-15T11:12:36;98975.50;;;24.65;34.83
18527;BME280;9393;42.158;24.748;2023-04-15T11:15:41;98968.91;;;24.90;34.63
18527;BME280;9393;42.158;24.748;2023-04-15T11:18:53;98965.78;;;24.54;34.59
18527;BME280;9393;42.158;24.748;2023-04-15T11:21:57;98957.97;;;23.81;35.91
18527;BME280;9393;42.158;24.748;2023-04-15T11:25:08;98961.13;;;23.95;36.90
18527;BME280;9393;42.158;24.748;2023-04-15T11:28:13;98951.81;;;23.97;36.73
18527;BME280;9393;42.158;24.748;2023-04-15T11:31:17;98943.09;;;24.35;37.23
18527;BME280;9393;42.158;24.748;2023-04-15T11:34:21;98960.00;;;24.41;36.97
18527;BME280;9393;42.158;24.748;2023-04-15T11:37:29;98952.94;;;24.35;36.52
18527;BME280;9393;42.158;24.748;2023-04-15T11:40:34;98945.88;;;24.62;36.24
18527;BME280;9393;42.158;24.748;2023-04-15T11:43:40;98941.63;;;24.83;35.97
18527;BME280;9393;42.158;24.748;2023-04-15T11:46:44;98940.53;;;24.40;36.92
18527;BME280;9393;42.158;24.748;2023-04-15T11:49:47;98940.03;;;23.77;37.92
18527;BME280;9393;42.158;24.748;2023-04-15T11:52:52;98930.28;;;23.37;38.30
18527;BME280;9393;42.158;24.748;2023-04-15T11:55:56;98926.22;;;22.78;40.10
18527;BME280;9393;42.158;24.748;2023-04-15T11:59:02;98917.91;;;23.43;38.27
18527;BME280;9393;42.158;24.748;2023-04-15T12:02:10;98914.88;;;23.68;38.36
18527;BME280;9393;42.158;24.748;2023-04-15T12:05:15;98915.19;;;24.04;37.44
18527;BME280;9393;42.158;24.748;2023-04-15T12:08:19;98916.00;;;24.05;37.01
18527;BME280;9393;42.158;24.748;2023-04-15T12:11:37;98921.00;;;23.68;37.93
18527;BME280;9393;42.158;24.748;2023-04-15T12:14:43;98922.78;;;23.96;37.62
18527;BME280;9393;42.158;24.748;2023-04-15T12:17:47;98911.72;;;23.87;38.02
18527;BME280;9393;42.158;24.748;2023-04-15T12:20:53;98913.00;;;24.01;37.52
18527;BME280;9393;42.158;24.748;2023-04-15T12:24:00;98904.34;;;24.44;37.20
18527;BME280;9393;42.158;24.748;2023-04-15T12:27:06;98910.69;;;23.88;38.87
18527;BME280;9393;42.158;24.748;2023-04-15T12:30:12;98902.84;;;23.98;38.75
18527;BME280;9393;42.158;24.748;2023-04-15T12:33:16;98908.88;;;24.10;38.83
18527;BME280;9393;42.158;24.748;2023-04-15T12:36:19;98893.06;;;24.21;38.97
18527;BME280;9393;42.158;24.748;2023-04-15T12:39:23;98909.31;;;24.19;38.57
18527;BME280;9393;42.158;24.748;2023-04-15T12:42:31;98908.41;;;24.13;38.55
18527;BME280;9393;42.158;24.748;2023-04-15T12:45:36;98913.91;;;23.90;39.97
18527;BME280;9393;42.158;24.748;2023-04-15T12:48:40;98898.81;;;23.79;40.06
18527;BME280;9393;42.158;24.748;2023-04-15T12:51:44;98896.69;;;23.98;40.11
18527;BME280;9393;42.158;24.748;2023-04-15T12:54:47;98897.00;;;23.51;41.27
18527;BME280;9393;42.158;24.748;2023-04-15T12:57:51;98912.38;;;23.33;41.48
18527;BME280;9393;42.158;24.748;2023-04-15T13:00:56;98917.50;;;23.23;41.37
18527;BME280;9393;42.158;24.748;2023-04-15T13:04:00;98908.94;;;23.21;41.48
18527;BME280;9393;42.158;24.748;2023-04-15T13:07:04;98915.06;;;22.93;42.60
18527;BME280;9393;42.158;24.748;2023-04-15T13:10:09;98908.28;;;22.85;43.79
18527;BME280;9393;42.158;24.748;2023-04-15T13:13:13;98910.03;;;22.80;44.84
18527;BME280;9393;42.158;24.748;2023-04-15T13:16:18;98902.09;;;22.68;44.78
18527;BME280;9393;42.158;24.748;2023-04-15T13:19:23;98905.59;;;22.22;45.22
18527;BME280;9393;42.158;24.748;2023-04-15T13:22:26;98898.72;;;22.73;45.02
18527;BME280;9393;42.158;24.748;2023-04-15T13:25:30;98906.34;;;22.69;45.05
18527;BME280;9393;42.158;24.748;2023-04-15T13:28:34;98896.06;;;22.73;45.40
18527;BME280;9393;42.158;24.748;2023-04-15T13:31:39;98890.25;;;22.76;45.55
18527;BME280;9393;42.158;24.748;2023-04-15T13:34:42;98883.81;;;22.72;45.33
18527;BME280;9393;42.158;24.748;2023-04-15T13:37:46;98880.59;;;22.98;44.66
18527;BME280;9393;42.158;24.748;2023-04-15T13:40:50;98880.41;;;23.16;44.61
18527;BME280;9393;42.158;24.748;2023-04-15T13:43:53;98879.84;;;23.59;43.50
18527;BME280;9393;42.158;24.748;2023-04-15T13:46:59;98875.66;;;23.63;43.63
18527;BME280;9393;42.158;24.748;2023-04-15T13:50:03;98874.34;;;23.99;43.21
18527;BME280;9393;42.158;24.748;2023-04-15T13:53:07;98875.31;;;24.09;43.22
18527;BME280;9393;42.158;24.748;2023-04-15T13:56:12;98866.47;;;23.26;44.61
18527;BME280;9393;42.158;24.748;2023-04-15T13:59:15;98873.91;;;22.95;45.65
18527;BME280;9393;42.158;24.748;2023-04-15T14:02:20;98877.16;;;22.46;46.76
18527;BME280;9393;42.158;24.748;2023-04-15T14:05:25;98879.25;;;22.32;47.12
18527;BME280;9393;42.158;24.748;2023-04-15T14:08:29;98877.06;;;22.41;47.30
18527;BME280;9393;42.158;24.748;2023-04-15T14:11:32;98876.94;;;22.36;47.16
18527;BME280;9393;42.158;24.748;2023-04-15T14:14:37;98886.41;;;22.32;47.85
18527;BME280;9393;42.158;24.748;2023-04-15T14:17:43;98877.06;;;22.41;47.82
18527;BME280;9393;42.158;24.748;2023-04-15T14:20:46;98871.41;;;22.26;48.62
18527;BME280;9393;42.158;24.748;2023-04-15T14:23:50;98872.66;;;22.35;48.56
18527;BME280;9393;42.158;24.748;2023-04-15T14:26:54;98874.28;;;22.24;48.93
18527;BME280;9393;42.158;24.748;2023-04-15T14:29:58;98888.16;;;22.14;49.81
18527;BME280;9393;42.158;24.748;2023-04-15T14:33:04;98885.63;;;22.20;49.32
18527;BME280;9393;42.158;24.748;2023-04-15T14:36:08;98874.75;;;22.33;49.46
18527;BME280;9393;42.158;24.748;2023-04-15T14:39:13;98883.06;;;22.01;50.25
18527;BME280;9393;42.158;24.748;2023-04-15T14:42:17;98874.53;;;21.99;50.49
18527;BME280;9393;42.158;24.748;2023-04-15T14:45:20;98866.31;;;22.36;49.65
18527;BME280;9393;42.158;24.748;2023-04-15T14:48:26;98872.38;;;22.48;49.64
18527;BME280;9393;42.158;24.748;2023-04-15T14:51:30;98871.69;;;22.52;49.87
18527;BME280;9393;42.158;24.748;2023-04-15T14:54:34;98868.69;;;22.49;49.83
18527;BME280;9393;42.158;24.748;2023-04-15T14:57:38;98870.06;;;22.75;49.34
18527;BME280;9393;42.158;24.748;2023-04-15T15:00:42;98877.78;;;23.33;48.02
18527;BME280;9393;42.158;24.748;2023-04-15T15:03:48;98871.63;;;23.77;46.63
18527;BME280;9393;42.158;24.748;2023-04-15T15:06:52;98873.25;;;23.78;46.79
18527;BME280;9393;42.158;24.748;2023-04-15T15:09:56;98866.44;;;23.87;47.13
18527;BME280;9393;42.158;24.748;2023-04-15T15:13:00;98869.03;;;23.49;48.01
18527;BME280;9393;42.158;24.748;2023-04-15T15:16:05;98860.94;;;23.27;47.47
18527;BME280;9393;42.158;24.748;2023-04-15T15:19:10;98861.81;;;22.88;48.45
18527;BME280;9393;42.158;24.748;2023-04-15T15:22:14;98857.59;;;22.75;48.95
18527;BME280;9393;42.158;24.748;2023-04-15T15:25:21;98844.38;;;23.08;48.99
18527;BME280;9393;42.158;24.748;2023-04-15T15:28:26;98850.22;;;23.39;48.26
18527;BME280;9393;42.158;24.748;2023-04-15T15:31:29;98844.09;;;23.55;48.17
18527;BME280;9393;42.158;24.748;2023-04-15T15:34:35;98837.41;;;23.69;46.96
18527;BME280;9393;42.158;24.748;2023-04-15T15:37:40;98832.84;;;23.64;47.14
18527;BME280;9393;42.158;24.748;2023-04-15T15:40:44;98839.81;;;23.87;46.42
18527;BME280;9393;42.158;24.748;2023-04-15T15:43:48;98831.94;;;23.59;45.22
18527;BME280;9393;42.158;24.748;2023-04-15T15:46:52;98829.22;;;23.54;44.70
18527;BME280;9393;42.158;24.748;2023-04-15T15:49:59;98841.88;;;23.19;45.67
18527;BME280;9393;42.158;24.748;2023-04-15T15:53:06;98836.69;;;22.95;46.25
18527;BME280;9393;42.158;24.748;2023-04-15T15:56:09;98832.19;;;22.56;46.95
18527;BME280;9393;42.158;24.748;2023-04-15T15:59:13;98827.06;;;22.66;47.06
18527;BME280;9393;42.158;24.748;2023-04-15T16:02:17;98819.69;;;22.68;47.56
18527;BME280;9393;42.158;24.748;2023-04-15T16:05:43;98825.25;;;22.67;47.80
18527;BME280;9393;42.158;24.748;2023-04-15T16:08:48;98826.09;;;22.44;48.56
18527;BME280;9393;42.158;24.748;2023-04-15T16:11:52;98827.00;;;22.38;49.00
18527;BME280;9393;42.158;24.748;2023-04-15T16:14:55;98814.81;;;22.13;49.86
18527;BME280;9393;42.158;24.748;2023-04-15T16:17:59;98813.69;;;21.98;50.43